sensor_id;sensor_type;location;lat;lon;timestamp;P1;durP1;ratioP1;P2;durP2;ratioP2
52650;SDS011;38537;47.226;39.702;2023-06-14T00:00:48;9.10;;;5.63;;
52650;SDS011;38537;47.226;39.702;2023-06-14T00:03:16;8.27;;;5.53;;
52650;SDS011;38537;47.226;39.702;2023-06-14T00:05:54;9.75;;;5.30;;
52650;SDS011;38537;47.226;39.702;2023-06-14T00:08:24;9.18;;;5.55;;
52650;SDS011;38537;47.226;39.702;2023-06-14T00:11:00;9.40;;;5.63;;
52650;SDS011;38537;47.226;39.702;2023-06-14T00:13:37;9.98;;;5.38;;
52650;SDS011;38537;47.226;39.702;2023-06-14T00:16:11;10.98;;;5.45;;
52650;SDS011;38537;47.226;39.702;2023-06-14T00:18:47;13.80;;;5.80;;
52650;SDS011;38537;47.226;39.702;2023-06-14T00:21:18;11.88;;;5.63;;
52650;SDS011;38537;47.226;39.702;2023-06-14T00:23:58;8.98;;;5.50;;
52650;SDS011;38537;47.226;39.702;2023-06-14T00:26:31;10.70;;;5.65;;
52650;SDS011;38537;47.226;39.702;2023-06-14T00:28:59;9.85;;;5.50;;
52650;SDS011;38537;47.226;39.702;2023-06-14T00:31:36;10.65;;;5.50;;
52650;SDS011;38537;47.226;39.702;2023-06-14T00:34:04;9.57;;;6.18;;
52650;SDS011;38537;47.226;39.702;2023-06-14T00:36:45;16.15;;;6.28;;
52650;SDS011;38537;47.226;39.702;2023-06-14T00:39:19;11.45;;;5.85;;
52650;SDS011;38537;47.226;39.702;2023-06-14T00:41:57;7.95;;;5.82;;
52650;SDS011;38537;47.226;39.702;2023-06-14T00:44:28;10.55;;;6.38;;
52650;SDS011;38537;47.226;39.702;2023-06-14T00:47:06;9.63;;;6.07;;
52650;SDS011;38537;47.226;39.702;2023-06-14T00:49:38;11.63;;;5.90;;
52650;SDS011;38537;47.226;39.702;2023-06-14T00:52:08;8.90;;;6.28;;
52650;SDS011;38537;47.226;39.702;2023-06-14T00:54:51;12.45;;;5.70;;
52650;SDS011;38537;47.226;39.702;2023-06-14T00:57:19;11.48;;;5.85;;
52650;SDS011;38537;47.226;39.702;2023-06-14T01:00:01;15.30;;;6.63;;
52650;SDS011;38537;47.226;39.702;2023-06-14T01:02:32;12.27;;;5.72;;
52650;SDS011;38537;47.226;39.702;2023-06-14T01:05:10;11.25;;;6.05;;
52650;SDS011;38537;47.226;39.702;2023-06-14T01:13:33;12.80;;;6.25;;
52650;SDS011;38537;47.226;39.702;2023-06-14T01:16:08;10.40;;;5.95;;
52650;SDS011;38537;47.226;39.702;2023-06-14T01:18:45;11.05;;;5.85;;
52650;SDS011;38537;47.226;39.702;2023-06-14T01:21:23;9.95;;;5.53;;
52650;SDS011;38537;47.226;39.702;2023-06-14T01:24:10;11.63;;;5.57;;
52650;SDS011;38537;47.226;39.702;2023-06-14T01:26:43;9.32;;;5.43;;
52650;SDS011;38537;47.226;39.702;2023-06-14T01:29:24;7.85;;;5.38;;
52650;SDS011;38537;47.226;39.702;2023-06-14T01:32:03;8.70;;;5.95;;
52650;SDS011;38537;47.226;39.702;2023-06-14T01:34:49;8.82;;;5.57;;
52650;SDS011;38537;47.226;39.702;2023-06-14T01:37:22;10.40;;;5.75;;
52650;SDS011;38537;47.226;39.702;2023-06-14T01:40:12;10.25;;;5.63;;
52650;SDS011;38537;47.226;39.702;2023-06-14T01:42:50;8.07;;;5.68;;
52650;SDS011;38537;47.226;39.702;2023-06-14T01:45:25;8.20;;;5.70;;
52650;SDS011;38537;47.226;39.702;2023-06-14T01:47:57;10.48;;;5.95;;
52650;SDS011;38537;47.226;39.702;2023-06-14T01:50:29;7.60;;;5.50;;
52650;SDS011;38537;47.226;39.702;2023-06-14T01:53:06;8.27;;;5.80;;
52650;SDS011;38537;47.226;39.702;2023-06-14T01:55:38;11.30;;;6.10;;
52650;SDS011;38537;47.226;39.702;2023-06-14T01:58:11;13.33;;;6.67;;
52650;SDS011;38537;47.226;39.702;2023-06-14T02:00:38;12.38;;;6.20;;
52650;SDS011;38537;47.226;39.702;2023-06-14T02:03:09;9.05;;;5.43;;
52650;SDS011;38537;47.226;39.702;2023-06-14T02:05:45;9.73;;;5.45;;
52650;SDS011;38537;47.226;39.702;2023-06-14T02:08:14;9.00;;;5.72;;
52650;SDS011;38537;47.226;39.702;2023-06-14T02:10:51;9.20;;;5.45;;
52650;SDS011;38537;47.226;39.702;2023-06-14T02:13:26;10.48;;;5.32;;
52650;SDS011;38537;47.226;39.702;2023-06-14T02:16:00;11.05;;;5.40;;
52650;SDS011;38537;47.226;39.702;2023-06-14T02:18:39;8.75;;;5.18;;
52650;SDS011;38537;47.226;39.702;2023-06-14T02:21:16;8.30;;;4.93;;
52650;SDS011;38537;47.226;39.702;2023-06-14T02:23:46;10.55;;;5.30;;
52650;SDS011;38537;47.226;39.702;2023-06-14T02:26:20;9.18;;;5.00;;
52650;SDS011;38537;47.226;39.702;2023-06-14T02:28:53;10.15;;;5.10;;
52650;SDS011;38537;47.226;39.702;2023-06-14T02:31:28;9.20;;;5.10;;
52650;SDS011;38537;47.226;39.702;2023-06-14T02:33:56;11.30;;;4.97;;
52650;SDS011;38537;47.226;39.702;2023-06-14T02:36:25;9.73;;;4.90;;
52650;SDS011;38537;47.226;39.702;2023-06-14T02:39:00;10.20;;;4.72;;
52650;SDS011;38537;47.226;39.702;2023-06-14T02:41:30;10.43;;;4.88;;
52650;SDS011;38537;47.226;39.702;2023-06-14T02:43:58;8.32;;;5.10;;
52650;SDS011;38537;47.226;39.702;2023-06-14T02:46:29;9.07;;;4.75;;
52650;SDS011;38537;47.226;39.702;2023-06-14T02:48:57;7.35;;;4.90;;
52650;SDS011;38537;47.226;39.702;2023-06-14T02:51:43;9.93;;;4.65;;
52650;SDS011;38537;47.226;39.702;2023-06-14T02:54:29;8.20;;;4.75;;
52650;SDS011;38537;47.226;39.702;2023-06-14T02:57:08;10.65;;;5.15;;
52650;SDS011;38537;47.226;39.702;2023-06-14T02:59:42;7.85;;;4.65;;
52650;SDS011;38537;47.226;39.702;2023-06-14T03:02:17;11.32;;;5.25;;
52650;SDS011;38537;47.226;39.702;2023-06-14T03:05:14;8.20;;;4.70;;
52650;SDS011;38537;47.226;39.702;2023-06-14T03:07:49;8.07;;;5.28;;
52650;SDS011;38537;47.226;39.702;2023-06-14T03:10:45;6.93;;;4.70;;
52650;SDS011;38537;47.226;39.702;2023-06-14T03:13:31;6.85;;;4.65;;
52650;SDS011;38537;47.226;39.702;2023-06-14T03:16:03;10.55;;;4.90;;
52650;SDS011;38537;47.226;39.702;2023-06-14T03:18:39;8.57;;;4.90;;
52650;SDS011;38537;47.226;39.702;2023-06-14T03:21:19;12.05;;;5.30;;
52650;SDS011;38537;47.226;39.702;2023-06-14T03:24:04;7.72;;;4.85;;
52650;SDS011;38537;47.226;39.702;2023-06-14T03:26:51;9.68;;;4.80;;
52650;SDS011;38537;47.226;39.702;2023-06-14T03:29:27;8.85;;;5.30;;
52650;SDS011;38537;47.226;39.702;2023-06-14T03:32:06;12.43;;;5.10;;
52650;SDS011;38537;47.226;39.702;2023-06-14T03:34:51;9.02;;;4.65;;
52650;SDS011;38537;47.226;39.702;2023-06-14T03:37:25;9.75;;;4.93;;
52650;SDS011;38537;47.226;39.702;2023-06-14T03:40:01;9.18;;;4.57;;
52650;SDS011;38537;47.226;39.702;2023-06-14T03:42:42;7.75;;;4.55;;
52650;SDS011;38537;47.226;39.702;2023-06-14T03:45:22;7.95;;;4.70;;
52650;SDS011;38537;47.226;39.702;2023-06-14T03:48:01;9.00;;;4.45;;
52650;SDS011;38537;47.226;39.702;2023-06-14T03:50:50;7.28;;;4.85;;
52650;SDS011;38537;47.226;39.702;2023-06-14T03:53:32;10.45;;;4.65;;
52650;SDS011;38537;47.226;39.702;2023-06-14T03:56:29;6.57;;;4.43;;
52650;SDS011;38537;47.226;39.702;2023-06-14T03:58:57;9.35;;;4.80;;
52650;SDS011;38537;47.226;39.702;2023-06-14T04:01:43;10.95;;;5.05;;
52650;SDS011;38537;47.226;39.702;2023-06-14T04:04:22;11.52;;;4.60;;
52650;SDS011;38537;47.226;39.702;2023-06-14T04:07:00;7.00;;;4.50;;
52650;SDS011;38537;47.226;39.702;2023-06-14T04:09:31;9.27;;;4.97;;
52650;SDS011;38537;47.226;39.702;2023-06-14T04:12:09;9.40;;;4.68;;
52650;SDS011;38537;47.226;39.702;2023-06-14T04:14:46;9.93;;;4.93;;
52650;SDS011;38537;47.226;39.702;2023-06-14T04:17:36;7.03;;;4.93;;
52650;SDS011;38537;47.226;39.702;2023-06-14T04:20:32;7.95;;;4.95;;
52650;SDS011;38537;47.226;39.702;2023-06-14T04:23:17;8.20;;;5.03;;
52650;SDS011;38537;47.226;39.702;2023-06-14T04:25:57;7.78;;;5.13;;
52650;SDS011;38537;47.226;39.702;2023-06-14T04:28:33;10.82;;;5.20;;
52650;SDS011;38537;47.226;39.702;2023-06-14T04:31:13;8.43;;;4.90;;
52650;SDS011;38537;47.226;39.702;2023-06-14T04:33:50;7.65;;;5.00;;
52650;SDS011;38537;47.226;39.702;2023-06-14T04:36:26;11.93;;;5.60;;
52650;SDS011;38537;47.226;39.702;2023-06-14T04:38:57;7.68;;;5.50;;
52650;SDS011;38537;47.226;39.702;2023-06-14T04:41:37;10.32;;;5.15;;
52650;SDS011;38537;47.226;39.702;2023-06-14T04:44:25;12.57;;;5.43;;
52650;SDS011;38537;47.226;39.702;2023-06-14T04:47:01;11.20;;;5.63;;
52650;SDS011;38537;47.226;39.702;2023-06-14T04:49:29;9.98;;;5.80;;
52650;SDS011;38537;47.226;39.702;2023-06-14T04:51:58;7.97;;;5.47;;
52650;SDS011;38537;47.226;39.702;2023-06-14T04:54:41;8.02;;;5.45;;
52650;SDS011;38537;47.226;39.702;2023-06-14T04:57:24;12.75;;;5.88;;
52650;SDS011;38537;47.226;39.702;2023-06-14T05:00:09;8.45;;;5.53;;
52650;SDS011;38537;47.226;39.702;2023-06-14T05:02:49;13.55;;;5.80;;
52650;SDS011;38537;47.226;39.702;2023-06-14T05:05:54;9.15;;;5.68;;
52650;SDS011;38537;47.226;39.702;2023-06-14T05:08:30;8.00;;;5.38;;
52650;SDS011;38537;47.226;39.702;2023-06-14T05:11:13;6.72;;;5.10;;
52650;SDS011;38537;47.226;39.702;2023-06-14T05:14:23;8.75;;;5.35;;
52650;SDS011;38537;47.226;39.702;2023-06-14T05:17:10;10.27;;;5.35;;
52650;SDS011;38537;47.226;39.702;2023-06-14T05:20:27;10.43;;;6.03;;
52650;SDS011;38537;47.226;39.702;2023-06-14T05:23:03;8.13;;;5.55;;
52650;SDS011;38537;47.226;39.702;2023-06-14T05:25:47;10.98;;;6.13;;
52650;SDS011;38537;47.226;39.702;2023-06-14T05:28:56;9.82;;;5.47;;
52650;SDS011;38537;47.226;39.702;2023-06-14T05:33:59;10.82;;;5.60;;
52650;SDS011;38537;47.226;39.702;2023-06-14T05:36:49;7.55;;;5.60;;
52650;SDS011;38537;47.226;39.702;2023-06-14T05:40:00;10.82;;;5.75;;
52650;SDS011;38537;47.226;39.702;2023-06-14T05:43:05;6.35;;;4.85;;
52650;SDS011;38537;47.226;39.702;2023-06-14T05:45:39;8.82;;;5.20;;
52650;SDS011;38537;47.226;39.702;2023-06-14T05:48:22;9.05;;;5.60;;
52650;SDS011;38537;47.226;39.702;2023-06-14T05:51:15;10.75;;;5.18;;
52650;SDS011;38537;47.226;39.702;2023-06-14T05:54:47;10.27;;;5.90;;
52650;SDS011;38537;47.226;39.702;2023-06-14T05:57:49;6.85;;;5.63;;
52650;SDS011;38537;47.226;39.702;2023-06-14T06:00:46;8.82;;;5.55;;
52650;SDS011;38537;47.226;39.702;2023-06-14T06:07:10;11.50;;;6.18;;
52650;SDS011;38537;47.226;39.702;2023-06-14T06:10:01;12.52;;;5.85;;
52650;SDS011;38537;47.226;39.702;2023-06-14T06:13:15;9.65;;;5.30;;
52650;SDS011;38537;47.226;39.702;2023-06-14T06:16:05;8.90;;;5.38;;
52650;SDS011;38537;47.226;39.702;2023-06-14T06:19:29;6.07;;;4.65;;
52650;SDS011;38537;47.226;39.702;2023-06-14T06:22:56;9.65;;;4.80;;
52650;SDS011;38537;47.226;39.702;2023-06-14T06:25:58;10.77;;;5.20;;
52650;SDS011;38537;47.226;39.702;2023-06-14T06:29:25;10.55;;;4.90;;
52650;SDS011;38537;47.226;39.702;2023-06-14T06:32:05;8.43;;;5.25;;
52650;SDS011;38537;47.226;39.702;2023-06-14T06:34:57;8.52;;;5.43;;
52650;SDS011;38537;47.226;39.702;2023-06-14T06:41:19;9.25;;;5.82;;
52650;SDS011;38537;47.226;39.702;2023-06-14T06:44:11;12.80;;;5.25;;
52650;SDS011;38537;47.226;39.702;2023-06-14T06:46:59;8.95;;;5.75;;
52650;SDS011;38537;47.226;39.702;2023-06-14T06:49:46;7.38;;;4.75;;
52650;SDS011;38537;47.226;39.702;2023-06-14T06:53:08;8.70;;;4.85;;
52650;SDS011;38537;47.226;39.702;2023-06-14T06:56:26;9.13;;;4.63;;
52650;SDS011;38537;47.226;39.702;2023-06-14T06:59:23;11.35;;;5.03;;
52650;SDS011;38537;47.226;39.702;2023-06-14T07:02:09;9.43;;;4.97;;
52650;SDS011;38537;47.226;39.702;2023-06-14T07:04:58;9.75;;;5.10;;
52650;SDS011;38537;47.226;39.702;2023-06-14T07:07:33;7.25;;;5.45;;
52650;SDS011;38537;47.226;39.702;2023-06-14T07:10:10;8.20;;;5.15;;
52650;SDS011;38537;47.226;39.702;2023-06-14T07:12:53;10.60;;;5.20;;
52650;SDS011;38537;47.226;39.702;2023-06-14T07:15:42;8.70;;;6.35;;
52650;SDS011;38537;47.226;39.702;2023-06-14T07:18:36;9.25;;;5.88;;
52650;SDS011;38537;47.226;39.702;2023-06-14T07:21:14;9.20;;;6.13;;
52650;SDS011;38537;47.226;39.702;2023-06-14T07:24:01;13.38;;;6.05;;
52650;SDS011;38537;47.226;39.702;2023-06-14T07:26:40;14.00;;;6.05;;
52650;SDS011;38537;47.226;39.702;2023-06-14T07:29:33;10.95;;;5.20;;
52650;SDS011;38537;47.226;39.702;2023-06-14T07:32:18;11.57;;;5.38;;
52650;SDS011;38537;47.226;39.702;2023-06-14T07:35:08;9.57;;;5.20;;
52650;SDS011;38537;47.226;39.702;2023-06-14T07:37:55;11.40;;;4.80;;
52650;SDS011;38537;47.226;39.702;2023-06-14T07:40:38;12.55;;;4.95;;
52650;SDS011;38537;47.226;39.702;2023-06-14T07:43:21;7.25;;;5.05;;
52650;SDS011;38537;47.226;39.702;2023-06-14T07:45:56;8.20;;;4.70;;
52650;SDS011;38537;47.226;39.702;2023-06-14T07:48:37;7.45;;;5.43;;
52650;SDS011;38537;47.226;39.702;2023-06-14T07:51:17;10.20;;;5.32;;
52650;SDS011;38537;47.226;39.702;2023-06-14T07:53:55;11.48;;;5.30;;
52650;SDS011;38537;47.226;39.702;2023-06-14T07:56:48;11.75;;;4.95;;
52650;SDS011;38537;47.226;39.702;2023-06-14T07:59:23;12.48;;;5.32;;
52650;SDS011;38537;47.226;39.702;2023-06-14T08:02:03;16.35;;;5.90;;
52650;SDS011;38537;47.226;39.702;2023-06-14T08:04:32;13.25;;;5.38;;
52650;SDS011;38537;47.226;39.702;2023-06-14T08:07:00;12.43;;;5.35;;
52650;SDS011;38537;47.226;39.702;2023-06-14T08:09:30;20.58;;;6.10;;
52650;SDS011;38537;47.226;39.702;2023-06-14T08:12:12;16.10;;;6.15;;
52650;SDS011;38537;47.226;39.702;2023-06-14T08:14:41;8.88;;;5.50;;
52650;SDS011;38537;47.226;39.702;2023-06-14T08:17:32;11.43;;;5.50;;
52650;SDS011;38537;47.226;39.702;2023-06-14T08:20:00;11.75;;;4.95;;
52650;SDS011;38537;47.226;39.702;2023-06-14T08:22:29;9.63;;;5.30;;
52650;SDS011;38537;47.226;39.702;2023-06-14T08:25:01;8.40;;;5.47;;
52650;SDS011;38537;47.226;39.702;2023-06-14T08:27:45;9.30;;;4.20;;
52650;SDS011;38537;47.226;39.702;2023-06-14T08:30:18;9.07;;;5.30;;
52650;SDS011;38537;47.226;39.702;2023-06-14T08:32:45;14.98;;;6.80;;
52650;SDS011;38537;47.226;39.702;2023-06-14T08:35:20;14.35;;;4.78;;
52650;SDS011;38537;47.226;39.702;2023-06-14T08:37:54;6.50;;;4.60;;
52650;SDS011;38537;47.226;39.702;2023-06-14T08:40:24;8.30;;;4.40;;
52650;SDS011;38537;47.226;39.702;2023-06-14T08:42:59;8.95;;;4.80;;
52650;SDS011;38537;47.226;39.702;2023-06-14T08:45:26;13.68;;;4.35;;
52650;SDS011;38537;47.226;39.702;2023-06-14T08:47:57;12.60;;;4.70;;
52650;SDS011;38537;47.226;39.702;2023-06-14T08:50:27;9.25;;;4.45;;
52650;SDS011;38537;47.226;39.702;2023-06-14T08:53:01;8.98;;;4.53;;
52650;SDS011;38537;47.226;39.702;2023-06-14T08:55:32;9.63;;;4.50;;
52650;SDS011;38537;47.226;39.702;2023-06-14T08:58:03;9.52;;;4.05;;
52650;SDS011;38537;47.226;39.702;2023-06-14T09:00:39;9.07;;;4.30;;
52650;SDS011;38537;47.226;39.702;2023-06-14T09:03:12;10.98;;;4.28;;
52650;SDS011;38537;47.226;39.702;2023-06-14T09:05:43;12.63;;;4.78;;
52650;SDS011;38537;47.226;39.702;2023-06-14T09:08:13;9.15;;;4.60;;
52650;SDS011;38537;47.226;39.702;2023-06-14T09:10:40;8.15;;;4.20;;
52650;SDS011;38537;47.226;39.702;2023-06-14T09:15:43;8.55;;;4.38;;
52650;SDS011;38537;47.226;39.702;2023-06-14T09:18:10;12.07;;;5.25;;
52650;SDS011;38537;47.226;39.702;2023-06-14T09:20:38;15.50;;;7.05;;
52650;SDS011;38537;47.226;39.702;2023-06-14T09:23:05;8.18;;;4.80;;
52650;SDS011;38537;47.226;39.702;2023-06-14T09:25:43;13.55;;;4.72;;
52650;SDS011;38537;47.226;39.702;2023-06-14T09:28:14;6.25;;;4.10;;
52650;SDS011;38537;47.226;39.702;2023-06-14T09:30:41;10.35;;;4.30;;
52650;SDS011;38537;47.226;39.702;2023-06-14T09:33:09;10.68;;;4.18;;
52650;SDS011;38537;47.226;39.702;2023-06-14T09:35:37;7.75;;;3.90;;
52650;SDS011;38537;47.226;39.702;2023-06-14T09:38:05;9.82;;;4.32;;
52650;SDS011;38537;47.226;39.702;2023-06-14T09:40:37;11.70;;;4.57;;
52650;SDS011;38537;47.226;39.702;2023-06-14T09:43:06;6.97;;;4.28;;
52650;SDS011;38537;47.226;39.702;2023-06-14T09:45:41;12.35;;;4.53;;
52650;SDS011;38537;47.226;39.702;2023-06-14T09:48:13;6.85;;;3.92;;
52650;SDS011;38537;47.226;39.702;2023-06-14T09:50:50;11.55;;;3.95;;
52650;SDS011;38537;47.226;39.702;2023-06-14T09:53:21;10.35;;;4.15;;
52650;SDS011;38537;47.226;39.702;2023-06-14T09:55:52;14.20;;;4.20;;
52650;SDS011;38537;47.226;39.702;2023-06-14T09:58:25;8.20;;;4.07;;
52650;SDS011;38537;47.226;39.702;2023-06-14T10:00:54;6.75;;;4.00;;
52650;SDS011;38537;47.226;39.702;2023-06-14T10:03:27;6.60;;;3.92;;
52650;SDS011;38537;47.226;39.702;2023-06-14T10:06:17;11.88;;;4.30;;
52650;SDS011;38537;47.226;39.702;2023-06-14T10:08:44;9.65;;;4.43;;
52650;SDS011;38537;47.226;39.702;2023-06-14T10:11:12;8.57;;;4.20;;
52650;SDS011;38537;47.226;39.702;2023-06-14T10:13:40;12.05;;;4.07;;
52650;SDS011;38537;47.226;39.702;2023-06-14T10:19:11;9.35;;;4.15;;
52650;SDS011;38537;47.226;39.702;2023-06-14T10:21:51;7.55;;;4.20;;
52650;SDS011;38537;47.226;39.702;2023-06-14T10:24:39;9.00;;;4.35;;
52650;SDS011;38537;47.226;39.702;2023-06-14T10:27:14;11.57;;;4.65;;
52650;SDS011;38537;47.226;39.702;2023-06-14T10:32:21;11.02;;;4.60;;
52650;SDS011;38537;47.226;39.702;2023-06-14T10:34:58;9.07;;;4.43;;
52650;SDS011;38537;47.226;39.702;2023-06-14T10:37:29;11.20;;;4.28;;
52650;SDS011;38537;47.226;39.702;2023-06-14T10:39:58;8.55;;;4.30;;
52650;SDS011;38537;47.226;39.702;2023-06-14T10:42:31;9.02;;;4.82;;
52650;SDS011;38537;47.226;39.702;2023-06-14T10:45:00;9.88;;;4.55;;
52650;SDS011;38537;47.226;39.702;2023-06-14T10:47:33;11.15;;;4.95;;
52650;SDS011;38537;47.226;39.702;2023-06-14T10:50:09;9.43;;;4.90;;
52650;SDS011;38537;47.226;39.702;2023-06-14T10:52:42;12.05;;;4.90;;
52650;SDS011;38537;47.226;39.702;2023-06-14T10:57:51;9.70;;;5.47;;
52650;SDS011;38537;47.226;39.702;2023-06-14T11:00:22;7.40;;;3.90;;
52650;SDS011;38537;47.226;39.702;2023-06-14T11:05:52;10.98;;;4.68;;
52650;SDS011;38537;47.226;39.702;2023-06-14T11:11:10;7.25;;;4.47;;
52650;SDS011;38537;47.226;39.702;2023-06-14T11:13:41;7.90;;;4.20;;
52650;SDS011;38537;47.226;39.702;2023-06-14T11:16:12;11.27;;;4.30;;
52650;SDS011;38537;47.226;39.702;2023-06-14T11:18:41;8.38;;;4.63;;
52650;SDS011;38537;47.226;39.702;2023-06-14T11:21:17;9.70;;;4.50;;
52650;SDS011;38537;47.226;39.702;2023-06-14T11:23:49;12.38;;;4.78;;
52650;SDS011;38537;47.226;39.702;2023-06-14T11:26:27;9.13;;;4.70;;
52650;SDS011;38537;47.226;39.702;2023-06-14T11:29:00;7.53;;;4.25;;
52650;SDS011;38537;47.226;39.702;2023-06-14T11:31:28;10.75;;;4.70;;
52650;SDS011;38537;47.226;39.702;2023-06-14T11:33:57;10.75;;;4.82;;
52650;SDS011;38537;47.226;39.702;2023-06-14T11:36:26;6.72;;;4.32;;
52650;SDS011;38537;47.226;39.702;2023-06-14T11:39:01;10.48;;;4.88;;
52650;SDS011;38537;47.226;39.702;2023-06-14T12:32:08;9.13;;;5.20;;
52650;SDS011;38537;47.226;39.702;2023-06-14T12:34:36;11.38;;;5.13;;
52650;SDS011;38537;47.226;39.702;2023-06-14T12:37:04;12.32;;;5.20;;
52650;SDS011;38537;47.226;39.702;2023-06-14T12:39:34;10.65;;;5.00;;
52650;SDS011;38537;47.226;39.702;2023-06-14T12:42:02;9.73;;;5.00;;
52650;SDS011;38537;47.226;39.702;2023-06-14T12:44:31;11.13;;;5.60;;
52650;SDS011;38537;47.226;39.702;2023-06-14T12:47:00;14.32;;;5.50;;
52650;SDS011;38537;47.226;39.702;2023-06-14T12:49:28;10.18;;;4.85;;
52650;SDS011;38537;47.226;39.702;2023-06-14T12:51:56;10.68;;;4.82;;
52650;SDS011;38537;47.226;39.702;2023-06-14T12:54:23;9.70;;;4.80;;
52650;SDS011;38537;47.226;39.702;2023-06-14T12:57:08;9.55;;;4.85;;
52650;SDS011;38537;47.226;39.702;2023-06-14T12:59:36;9.77;;;4.95;;
52650;SDS011;38537;47.226;39.702;2023-06-14T13:02:13;11.60;;;4.97;;
52650;SDS011;38537;47.226;39.702;2023-06-14T13:08:04;8.68;;;4.95;;
52650;SDS011;38537;47.226;39.702;2023-06-14T13:10:31;9.60;;;5.32;;
52650;SDS011;38537;47.226;39.702;2023-06-14T13:12:59;8.75;;;4.82;;
52650;SDS011;38537;47.226;39.702;2023-06-14T13:15:27;8.30;;;4.82;;
52650;SDS011;38537;47.226;39.702;2023-06-14T13:17:55;9.55;;;4.90;;
52650;SDS011;38537;47.226;39.702;2023-06-14T13:20:22;16.10;;;5.75;;
52650;SDS011;38537;47.226;39.702;2023-06-14T13:22:50;10.23;;;4.78;;
52650;SDS011;38537;47.226;39.702;2023-06-14T13:25:19;8.98;;;4.68;;
52650;SDS011;38537;47.226;39.702;2023-06-14T13:27:49;13.95;;;4.95;;
52650;SDS011;38537;47.226;39.702;2023-06-14T13:30:16;7.78;;;4.85;;
52650;SDS011;38537;47.226;39.702;2023-06-14T13:32:46;8.65;;;4.45;;
52650;SDS011;38537;47.226;39.702;2023-06-14T13:35:16;9.90;;;4.50;;
52650;SDS011;38537;47.226;39.702;2023-06-14T13:37:47;9.77;;;5.00;;
52650;SDS011;38537;47.226;39.702;2023-06-14T13:40:15;12.27;;;4.50;;
52650;SDS011;38537;47.226;39.702;2023-06-14T13:42:45;11.55;;;4.82;;
52650;SDS011;38537;47.226;39.702;2023-06-14T13:45:13;6.90;;;4.00;;
52650;SDS011;38537;47.226;39.702;2023-06-14T13:47:42;12.65;;;7.10;;
52650;SDS011;38537;47.226;39.702;2023-06-14T13:50:09;10.77;;;3.95;;
52650;SDS011;38537;47.226;39.702;2023-06-14T13:52:36;9.85;;;4.10;;
52650;SDS011;38537;47.226;39.702;2023-06-14T13:55:04;11.98;;;4.47;;
52650;SDS011;38537;47.226;39.702;2023-06-14T13:57:32;9.65;;;4.30;;
52650;SDS011;38537;47.226;39.702;2023-06-14T13:59:59;8.50;;;4.10;;
52650;SDS011;38537;47.226;39.702;2023-06-14T14:02:41;11.45;;;3.90;;
52650;SDS011;38537;47.226;39.702;2023-06-14T14:05:10;6.90;;;3.60;;
52650;SDS011;38537;47.226;39.702;2023-06-14T14:07:41;6.82;;;4.07;;
52650;SDS011;38537;47.226;39.702;2023-06-14T14:10:09;6.78;;;3.63;;
52650;SDS011;38537;47.226;39.702;2023-06-14T14:12:39;5.32;;;3.50;;
52650;SDS011;38537;47.226;39.702;2023-06-14T14:15:06;8.32;;;3.67;;
52650;SDS011;38537;47.226;39.702;2023-06-14T14:17:40;7.93;;;3.80;;
52650;SDS011;38537;47.226;39.702;2023-06-14T14:20:09;6.88;;;3.42;;
52650;SDS011;38537;47.226;39.702;2023-06-14T14:22:40;12.18;;;3.92;;
52650;SDS011;38537;47.226;39.702;2023-06-14T14:25:08;10.52;;;3.70;;
52650;SDS011;38537;47.226;39.702;2023-06-14T14:27:36;8.52;;;3.58;;
52650;SDS011;38537;47.226;39.702;2023-06-14T14:30:03;8.43;;;3.83;;
52650;SDS011;38537;47.226;39.702;2023-06-14T14:32:33;11.23;;;3.60;;
52650;SDS011;38537;47.226;39.702;2023-06-14T14:35:01;8.23;;;3.70;;
52650;SDS011;38537;47.226;39.702;2023-06-14T14:37:30;9.68;;;3.92;;
52650;SDS011;38537;47.226;39.702;2023-06-14T14:40:00;8.23;;;3.67;;
52650;SDS011;38537;47.226;39.702;2023-06-14T14:42:30;5.95;;;3.47;;
52650;SDS011;38537;47.226;39.702;2023-06-14T14:44:57;10.93;;;3.53;;
52650;SDS011;38537;47.226;39.702;2023-06-14T14:51:35;4.55;;;3.35;;
52650;SDS011;38537;47.226;39.702;2023-06-14T14:54:05;8.63;;;3.47;;
52650;SDS011;38537;47.226;39.702;2023-06-14T14:56:39;7.32;;;3.53;;
52650;SDS011;38537;47.226;39.702;2023-06-14T14:59:06;8.57;;;3.67;;
52650;SDS011;38537;47.226;39.702;2023-06-14T15:01:34;8.35;;;4.03;;
52650;SDS011;38537;47.226;39.702;2023-06-14T15:04:02;7.00;;;3.22;;
52650;SDS011;38537;47.226;39.702;2023-06-14T15:06:30;9.57;;;3.72;;
52650;SDS011;38537;47.226;39.702;2023-06-14T15:08:58;10.27;;;3.85;;
52650;SDS011;38537;47.226;39.702;2023-06-14T15:11:28;8.93;;;3.72;;
52650;SDS011;38537;47.226;39.702;2023-06-14T15:13:55;10.43;;;3.72;;
52650;SDS011;38537;47.226;39.702;2023-06-14T15:16:23;6.53;;;3.83;;
52650;SDS011;38537;47.226;39.702;2023-06-14T15:18:55;11.90;;;3.80;;
52650;SDS011;38537;47.226;39.702;2023-06-14T15:21:26;9.90;;;3.80;;
52650;SDS011;38537;47.226;39.702;2023-06-14T15:23:55;10.57;;;4.07;;
52650;SDS011;38537;47.226;39.702;2023-06-14T15:26:23;6.38;;;3.53;;
52650;SDS011;38537;47.226;39.702;2023-06-14T15:28:51;10.25;;;3.90;;
52650;SDS011;38537;47.226;39.702;2023-06-14T15:31:19;8.68;;;3.80;;
52650;SDS011;38537;47.226;39.702;2023-06-14T15:33:47;7.65;;;4.07;;
52650;SDS011;38537;47.226;39.702;2023-06-14T15:36:18;8.52;;;4.22;;
52650;SDS011;38537;47.226;39.702;2023-06-14T15:38:46;8.02;;;3.67;;
52650;SDS011;38537;47.226;39.702;2023-06-14T15:41:17;8.93;;;4.50;;
52650;SDS011;38537;47.226;39.702;2023-06-14T15:43:44;6.78;;;3.90;;
52650;SDS011;38537;47.226;39.702;2023-06-14T15:46:14;12.27;;;4.13;;
52650;SDS011;38537;47.226;39.702;2023-06-14T15:48:51;7.63;;;4.13;;
52650;SDS011;38537;47.226;39.702;2023-06-14T15:51:21;9.35;;;4.13;;
52650;SDS011;38537;47.226;39.702;2023-06-14T15:53:58;11.40;;;4.60;;
52650;SDS011;38537;47.226;39.702;2023-06-14T15:56:26;10.60;;;4.50;;
52650;SDS011;38537;47.226;39.702;2023-06-14T15:59:02;15.50;;;4.82;;
52650;SDS011;38537;47.226;39.702;2023-06-14T16:01:51;7.93;;;4.50;;
52650;SDS011;38537;47.226;39.702;2023-06-14T16:04:21;5.68;;;4.10;;
52650;SDS011;38537;47.226;39.702;2023-06-14T16:06:56;7.90;;;4.20;;
52650;SDS011;38537;47.226;39.702;2023-06-14T16:09:27;8.20;;;4.05;;
52650;SDS011;38537;47.226;39.702;2023-06-14T16:11:55;15.18;;;4.20;;
52650;SDS011;38537;47.226;39.702;2023-06-14T16:14:33;9.50;;;4.30;;
52650;SDS011;38537;47.226;39.702;2023-06-14T16:17:09;7.50;;;3.92;;
52650;SDS011;38537;47.226;39.702;2023-06-14T16:20:13;12.65;;;4.63;;
52650;SDS011;38537;47.226;39.702;2023-06-14T16:22:45;7.68;;;4.03;;
52650;SDS011;38537;47.226;39.702;2023-06-14T16:25:58;9.45;;;4.15;;
52650;SDS011;38537;47.226;39.702;2023-06-14T16:28:37;6.15;;;4.15;;
52650;SDS011;38537;47.226;39.702;2023-06-14T16:31:21;8.48;;;4.47;;
52650;SDS011;38537;47.226;39.702;2023-06-14T16:33:52;9.43;;;4.47;;
52650;SDS011;38537;47.226;39.702;2023-06-14T16:36:38;11.73;;;4.50;;
52650;SDS011;38537;47.226;39.702;2023-06-14T16:39:25;7.95;;;4.30;;
52650;SDS011;38537;47.226;39.702;2023-06-14T16:42:51;7.60;;;4.32;;
52650;SDS011;38537;47.226;39.702;2023-06-14T16:45:32;8.02;;;4.65;;
52650;SDS011;38537;47.226;39.702;2023-06-14T16:48:01;12.50;;;4.60;;
52650;SDS011;38537;47.226;39.702;2023-06-14T16:50:56;7.65;;;4.28;;
52650;SDS011;38537;47.226;39.702;2023-06-14T16:53:41;8.10;;;3.40;;
52650;SDS011;38537;47.226;39.702;2023-06-14T16:56:32;7.53;;;3.70;;